createdAt,value
2023-03-28T00:02:10.884Z,0.90
2023-03-28T00:04:38.684Z,1.10
2023-03-28T00:07:05.759Z,0.80
2023-03-28T00:09:32.938Z,0.60
2023-03-28T00:12:00.050Z,0.60
2023-03-28T00:14:27.152Z,0.52
2023-03-28T00:16:54.159Z,0.63
2023-03-28T00:19:22.855Z,0.63
2023-03-28T00:21:51.389Z,1.15
2023-03-28T00:24:21.280Z,1.25
2023-03-28T00:26:54.655Z,1.27
2023-03-28T00:29:23.112Z,0.63
2023-03-28T00:31:51.034Z,1.17
2023-03-28T00:34:18.391Z,1.20
2023-03-28T00:36:45.466Z,0.60
2023-03-28T00:39:13.326Z,1.30
2023-03-28T00:41:42.215Z,0.70
2023-03-28T00:44:27.960Z,0.65
2023-03-28T00:46:56.132Z,1.00
2023-03-28T00:49:26.138Z,0.75
2023-03-28T00:51:57.627Z,0.98
2023-03-28T00:54:28.002Z,0.60
2023-03-28T00:56:58.003Z,0.57
2023-03-28T00:59:27.271Z,0.65
2023-03-28T01:01:55.441Z,0.93
2023-03-28T01:04:25.896Z,1.05
2023-03-28T01:06:54.810Z,0.55
2023-03-28T01:09:24.077Z,0.70
2023-03-28T01:11:51.753Z,0.65
2023-03-28T01:14:20.522Z,0.57
2023-03-28T01:16:47.981Z,0.65
2023-03-28T01:19:27.451Z,0.82
2023-03-28T01:22:17.857Z,0.88
2023-03-28T01:25:12.653Z,1.10
2023-03-28T01:27:46.548Z,1.38
2023-03-28T01:30:28.712Z,0.68
2023-03-28T01:33:14.787Z,0.45
2023-03-28T01:36:00.671Z,0.20
2023-03-28T01:38:55.849Z,0.93
2023-03-28T01:41:45.697Z,1.05
2023-03-28T01:44:18.781Z,0.57
2023-03-28T01:46:52.167Z,0.22
2023-03-28T01:49:42.028Z,0.30
2023-03-28T01:52:20.397Z,0.65
2023-03-28T01:54:59.343Z,0.90
2023-03-28T01:57:35.849Z,0.50
2023-03-28T02:00:12.031Z,0.88
2023-03-28T02:02:57.312Z,0.73
2023-03-28T02:05:25.576Z,0.20
2023-03-28T02:07:53.523Z,0.40
2023-03-28T02:10:23.131Z,0.93
2023-03-28T02:12:52.742Z,1.17
2023-03-28T02:15:21.681Z,0.77
2023-03-28T02:17:51.952Z,0.45
2023-03-28T02:20:20.656Z,0.38
2023-03-28T02:22:50.882Z,0.90
2023-03-28T02:25:18.823Z,0.47
2023-03-28T02:27:46.835Z,0.60
2023-03-28T02:30:14.284Z,0.55
2023-03-28T02:32:43.988Z,0.98
2023-03-28T02:35:11.561Z,0.75
2023-03-28T02:37:54.221Z,0.40
2023-03-28T02:40:24.096Z,0.57
2023-03-28T02:42:53.951Z,1.30
2023-03-28T02:45:24.874Z,0.60
2023-03-28T02:48:18.377Z,0.60
2023-03-28T02:50:45.568Z,1.55
2023-03-28T02:53:27.037Z,1.10
2023-03-28T02:55:57.180Z,0.40
2023-03-28T02:58:34.193Z,0.55
2023-03-28T03:01:03.561Z,1.30
2023-03-28T03:03:33.505Z,0.63
2023-03-28T03:06:01.234Z,0.30
2023-03-28T03:08:30.032Z,0.40
2023-03-28T03:10:57.449Z,0.90
2023-03-28T03:13:24.601Z,0.32
2023-03-28T03:15:56.025Z,0.75
2023-03-28T03:18:23.664Z,0.65
2023-03-28T03:20:50.757Z,0.90
2023-03-28T03:23:17.827Z,0.93
2023-03-28T03:25:45.276Z,1.52
2023-03-28T03:28:13.041Z,0.68
2023-03-28T03:30:40.199Z,0.40
2023-03-28T03:33:10.327Z,0.80
2023-03-28T03:35:42.098Z,0.50
2023-03-28T03:38:09.705Z,0.55
2023-03-28T03:40:36.746Z,0.50
2023-03-28T03:43:03.916Z,0.50
2023-03-28T03:45:30.998Z,1.45
2023-03-28T03:47:58.095Z,1.40
2023-03-28T03:50:25.164Z,0.90
2023-03-28T03:52:52.271Z,0.50
2023-03-28T03:55:20.775Z,0.60
2023-03-28T03:57:47.884Z,0.77
2023-03-28T04:00:15.129Z,0.50
2023-03-28T04:02:42.365Z,1.63
2023-03-28T04:05:09.977Z,0.70
2023-03-28T04:07:37.362Z,0.52
2023-03-28T04:10:04.855Z,0.85
2023-03-28T04:12:31.879Z,0.82
2023-03-28T04:14:58.946Z,1.02
2023-03-28T04:17:28.665Z,1.00
2023-03-28T04:19:56.095Z,0.88
2023-03-28T04:22:23.902Z,0.88
2023-03-28T04:24:53.538Z,0.40
2023-03-28T04:27:20.658Z,0.82
2023-03-28T04:29:47.666Z,0.65
2023-03-28T04:32:14.792Z,0.82
2023-03-28T04:34:45.791Z,0.80
2023-03-28T04:37:13.290Z,0.95
2023-03-28T04:39:41.739Z,0.30
2023-03-28T04:42:09.232Z,0.40
2023-03-28T04:44:36.321Z,0.80
2023-03-28T04:47:03.429Z,0.50
2023-03-28T04:49:30.491Z,0.30
2023-03-28T04:51:57.602Z,0.95
2023-03-28T04:54:24.675Z,1.02
2023-03-28T04:56:51.796Z,0.55
2023-03-28T04:59:18.907Z,0.90
2023-03-28T05:01:49.516Z,0.98
2023-03-28T05:04:17.777Z,0.60
2023-03-28T05:06:45.975Z,1.17
2023-03-28T05:09:13.459Z,0.80
2023-03-28T05:11:41.075Z,0.98
2023-03-28T05:14:08.142Z,0.98
2023-03-28T05:16:35.772Z,0.75
2023-03-28T05:19:02.995Z,0.68
2023-03-28T05:21:30.252Z,0.98
2023-03-28T05:23:57.409Z,0.80
2023-03-28T05:26:24.545Z,0.80
2023-03-28T05:28:51.621Z,0.77
2023-03-28T05:31:18.782Z,0.95
2023-03-28T05:33:46.021Z,1.00
2023-03-28T05:36:13.205Z,0.77
2023-03-28T05:38:40.454Z,1.00
2023-03-28T05:41:07.595Z,1.08
2023-03-28T05:43:34.665Z,1.50
2023-03-28T05:46:01.753Z,0.88
2023-03-28T05:48:29.895Z,1.20
2023-03-28T05:50:57.032Z,1.13
2023-03-28T05:53:24.060Z,0.95
2023-03-28T05:55:51.827Z,1.25
2023-03-28T05:58:20.129Z,1.23
2023-03-28T06:00:47.302Z,1.77
2023-03-28T06:03:16.961Z,1.30
2023-03-28T06:05:44.502Z,0.85
2023-03-28T06:08:11.835Z,0.90
2023-03-28T06:10:38.970Z,1.17
2023-03-28T06:13:06.070Z,1.13
2023-03-28T06:15:33.553Z,0.70
2023-03-28T06:18:00.800Z,1.73
2023-03-28T06:20:27.938Z,0.80
2023-03-28T06:22:55.045Z,1.30
2023-03-28T06:25:22.065Z,1.67
2023-03-28T06:27:49.181Z,1.42
2023-03-28T06:30:16.297Z,1.55
2023-03-28T06:32:43.435Z,1.10
2023-03-28T06:35:10.667Z,1.40
2023-03-28T06:37:37.735Z,1.58
2023-03-28T06:40:04.921Z,1.33
2023-03-28T06:42:31.964Z,1.33
2023-03-28T06:44:59.083Z,1.70
2023-03-28T06:47:26.258Z,1.77
2023-03-28T06:49:53.514Z,1.50
2023-03-28T06:52:22.182Z,1.52
2023-03-28T06:54:49.747Z,1.48
2023-03-28T06:57:17.015Z,1.40
2023-03-28T06:59:44.181Z,1.52
2023-03-28T07:02:14.347Z,1.40
2023-03-28T07:04:41.427Z,1.48
2023-03-28T07:07:09.290Z,1.35
2023-03-28T07:09:37.223Z,1.35
2023-03-28T07:12:04.784Z,1.08
2023-03-28T07:14:31.839Z,1.17
2023-03-28T07:16:58.957Z,1.25
2023-03-28T07:19:26.043Z,1.30
2023-03-28T07:21:53.321Z,1.40
2023-03-28T07:24:20.384Z,1.42
2023-03-28T07:26:47.739Z,1.13
2023-03-28T07:29:14.851Z,0.80
2023-03-28T07:31:41.982Z,0.88
2023-03-28T07:34:09.143Z,1.10
2023-03-28T07:36:38.362Z,1.60
2023-03-28T07:39:05.728Z,0.70
2023-03-28T07:41:32.785Z,0.93
2023-03-28T07:43:59.938Z,0.98
2023-03-28T07:46:27.165Z,1.27
2023-03-28T07:48:56.128Z,0.65
2023-03-28T07:51:23.273Z,0.98
2023-03-28T07:53:50.332Z,0.70
2023-03-28T07:56:17.405Z,0.80
2023-03-28T07:58:44.423Z,0.85
2023-03-28T08:01:12.705Z,1.00
2023-03-28T08:03:40.391Z,0.70
2023-03-28T08:06:20.045Z,0.65
2023-03-28T08:08:53.187Z,1.00
2023-03-28T08:11:20.235Z,1.10
2023-03-28T08:13:47.293Z,0.73
2023-03-28T08:16:14.395Z,0.60
2023-03-28T08:18:41.536Z,0.70
2023-03-28T08:21:08.603Z,0.70
2023-03-28T08:23:35.785Z,0.68
2023-03-28T08:26:04.941Z,0.95
2023-03-28T08:28:35.730Z,0.50
2023-03-28T08:31:03.350Z,1.15
2023-03-28T08:33:32.785Z,0.88
2023-03-28T08:36:00.017Z,0.47
2023-03-28T08:38:27.534Z,0.60
2023-03-28T08:41:01.653Z,0.77
2023-03-28T08:43:31.915Z,0.88
2023-03-28T08:45:59.873Z,1.00
2023-03-28T08:48:31.512Z,0.50
2023-03-28T08:51:04.514Z,0.65
2023-03-28T08:53:37.485Z,0.47
2023-03-28T08:56:06.142Z,0.40
2023-03-28T08:58:37.983Z,0.45
2023-03-28T09:03:33.622Z,0.50
2023-03-28T09:06:06.393Z,0.60
2023-03-28T09:08:45.372Z,0.50
2023-03-28T09:11:12.388Z,0.50
2023-03-28T09:13:49.360Z,0.38
2023-03-28T09:16:28.423Z,1.13
2023-03-28T09:18:56.495Z,0.52
2023-03-28T09:21:28.123Z,0.73
2023-03-28T09:24:06.743Z,0.65
2023-03-28T09:26:41.074Z,0.40
2023-03-28T09:29:14.705Z,0.50
2023-03-28T09:31:45.305Z,0.50
2023-03-28T09:34:27.582Z,0.50
2023-03-28T09:37:12.025Z,0.43
2023-03-28T09:39:44.757Z,0.60
2023-03-28T09:42:16.372Z,0.50
2023-03-28T09:44:54.807Z,0.45
2023-03-28T09:47:22.360Z,0.30
2023-03-28T09:49:52.452Z,0.17
2023-03-28T09:52:26.465Z,0.38
2023-03-28T09:54:53.618Z,0.47
2023-03-28T09:57:20.695Z,0.22
2023-03-28T09:59:47.797Z,0.68
2023-03-28T10:02:32.396Z,0.25
2023-03-28T10:04:59.841Z,0.30
2023-03-28T10:07:34.925Z,0.73
2023-03-28T10:10:09.282Z,0.45
2023-03-28T10:12:37.823Z,0.88
2023-03-28T10:15:05.263Z,0.60
2023-03-28T10:17:35.393Z,0.70
2023-03-28T10:20:07.977Z,0.43
2023-03-28T10:22:36.270Z,0.93
2023-03-28T10:25:07.182Z,0.55
2023-03-28T10:27:35.280Z,0.43
2023-03-28T10:30:29.470Z,0.52
2023-03-28T10:33:11.592Z,0.30
2023-03-28T10:38:15.575Z,0.80
2023-03-28T10:40:42.765Z,1.42
2023-03-28T10:43:14.606Z,0.73
2023-03-28T10:45:46.193Z,0.75
2023-03-28T10:48:18.569Z,0.77
2023-03-28T10:50:48.180Z,0.80
2023-03-28T10:53:34.105Z,0.93
2023-03-28T10:56:01.339Z,0.60
2023-03-28T10:58:34.529Z,0.57
2023-03-28T11:01:19.239Z,0.80
2023-03-28T11:03:46.432Z,0.65
2023-03-28T11:06:36.986Z,0.65
2023-03-28T11:09:07.504Z,0.80
2023-03-28T11:11:53.409Z,0.88
2023-03-28T11:14:20.676Z,0.93
2023-03-28T11:16:53.477Z,0.80
2023-03-28T11:19:34.719Z,0.70
2023-03-28T11:22:20.582Z,0.70
2023-03-28T11:25:19.856Z,2.25
2023-03-28T11:28:13.067Z,1.85
2023-03-28T11:30:41.245Z,0.82
2023-03-28T11:33:28.357Z,0.70
2023-03-28T11:35:58.138Z,1.08
2023-03-28T11:38:25.286Z,0.70
2023-03-28T11:41:13.064Z,0.70
2023-03-28T11:43:48.799Z,0.63
2023-03-28T11:46:21.562Z,0.88
2023-03-28T11:48:54.901Z,0.90
2023-03-28T11:51:32.974Z,0.70
2023-03-28T11:54:00.055Z,0.90
2023-03-28T11:56:30.968Z,0.80
2023-03-28T11:59:01.067Z,0.70
2023-03-28T12:01:31.220Z,1.00
2023-03-28T12:04:05.767Z,0.68
2023-03-28T12:06:35.680Z,0.85
2023-03-28T12:09:08.376Z,0.95
2023-03-28T12:11:41.052Z,0.80
2023-03-28T12:14:21.656Z,0.70
2023-03-28T12:16:49.941Z,0.75
2023-03-28T12:19:19.510Z,0.63
2023-03-28T12:21:59.451Z,0.70
2023-03-28T12:24:34.061Z,0.80
2023-03-28T12:27:19.507Z,0.88
2023-03-28T12:29:53.848Z,1.10
2023-03-28T12:32:32.808Z,1.10
2023-03-28T12:35:07.295Z,1.20
2023-03-28T12:37:38.491Z,0.80
2023-03-28T12:40:12.837Z,0.80
2023-03-28T12:42:44.117Z,0.75
2023-03-28T12:45:40.951Z,1.00
2023-03-28T12:48:15.592Z,0.85
2023-03-28T12:50:50.743Z,1.10
2023-03-28T12:53:17.939Z,0.80
2023-03-28T12:55:46.558Z,0.75
2023-03-28T12:58:30.262Z,0.80
2023-03-28T13:01:09.725Z,0.90
2023-03-28T13:03:42.773Z,0.85
2023-03-28T13:06:15.534Z,1.27
2023-03-28T13:08:50.447Z,1.20
2023-03-28T13:11:25.439Z,0.98
2023-03-28T13:14:11.172Z,1.30
2023-03-28T13:16:53.043Z,1.13
2023-03-28T13:19:20.610Z,1.40
2023-03-28T13:21:53.019Z,1.30
2023-03-28T13:24:26.281Z,1.77
2023-03-28T13:27:12.347Z,1.20
2023-03-28T13:29:52.746Z,1.33
2023-03-28T13:32:23.018Z,1.30
2023-03-28T13:34:59.853Z,1.20
2023-03-28T13:37:47.179Z,1.27
2023-03-28T13:40:33.168Z,1.17
2023-03-28T13:43:00.754Z,1.60
2023-03-28T13:45:29.000Z,1.70
2023-03-28T13:48:09.944Z,1.40
2023-03-28T13:50:40.714Z,1.50
2023-03-28T13:53:07.817Z,1.38
2023-03-28T13:55:34.908Z,1.30
2023-03-28T13:58:02.300Z,1.60
2023-03-28T14:00:29.656Z,1.02
2023-03-28T14:03:04.212Z,1.70
2023-03-28T14:05:32.335Z,1.17
2023-03-28T14:08:23.708Z,1.08
2023-03-28T14:10:52.169Z,1.50
2023-03-28T14:13:22.273Z,1.30
2023-03-28T14:15:52.131Z,1.42
2023-03-28T14:18:23.174Z,1.65
2023-03-28T14:20:50.447Z,1.20
2023-03-28T14:23:27.820Z,1.33
2023-03-28T14:25:55.303Z,1.05
2023-03-28T14:28:28.261Z,1.70
2023-03-28T14:30:55.600Z,1.20
2023-03-28T14:33:24.317Z,1.20
2023-03-28T14:35:58.980Z,1.00
2023-03-28T14:38:31.717Z,0.85
2023-03-28T14:41:07.742Z,0.95
2023-03-28T14:43:35.102Z,1.77
2023-03-28T14:46:04.938Z,1.10
2023-03-28T14:48:32.449Z,1.15
2023-03-28T14:51:03.045Z,1.40
2023-03-28T14:53:34.925Z,1.00
2023-03-28T14:56:06.723Z,0.80
2023-03-28T14:58:35.005Z,1.05
2023-03-28T15:01:02.719Z,1.00
2023-03-28T15:03:38.760Z,0.98
2023-03-28T15:06:07.068Z,1.23
2023-03-28T15:08:36.778Z,1.00
2023-03-28T15:11:15.534Z,1.20
2023-03-28T15:13:44.444Z,1.10
2023-03-28T15:16:16.645Z,1.00
2023-03-28T15:18:49.429Z,1.10
2023-03-28T15:21:16.906Z,0.90
2023-03-28T15:23:46.084Z,1.00
2023-03-28T15:26:19.894Z,0.80
2023-03-28T15:28:48.170Z,1.00
2023-03-28T15:31:16.985Z,1.10
2023-03-28T15:33:46.084Z,1.00
2023-03-28T15:36:18.000Z,0.80
2023-03-28T15:41:18.978Z,1.23
2023-03-28T15:43:55.500Z,0.95
2023-03-28T15:46:23.623Z,1.27
2023-03-28T15:48:50.708Z,1.00
2023-03-28T15:51:18.904Z,1.00
2023-03-28T15:53:47.311Z,0.90
2023-03-28T15:56:21.578Z,2.15
2023-03-28T15:58:48.853Z,1.30
2023-03-28T16:01:27.245Z,1.00
2023-03-28T16:04:13.646Z,1.30
2023-03-28T16:06:42.290Z,1.58
2023-03-28T16:09:18.380Z,1.98
2023-03-28T16:11:46.680Z,1.58
2023-03-28T16:14:20.806Z,1.35
2023-03-28T16:16:47.943Z,1.17
2023-03-28T16:19:28.239Z,1.45
2023-03-28T16:22:00.541Z,1.35
2023-03-28T16:24:28.242Z,1.08
2023-03-28T16:26:55.508Z,1.88
2023-03-28T16:29:22.618Z,1.30
2023-03-28T16:31:49.737Z,1.27
2023-03-28T16:34:16.827Z,1.50
2023-03-28T16:36:43.880Z,1.55
2023-03-28T16:39:11.140Z,1.42
2023-03-28T16:41:38.239Z,1.52
2023-03-28T16:44:05.593Z,1.75
2023-03-28T16:46:32.810Z,1.38
2023-03-28T16:48:59.938Z,1.40
2023-03-28T16:51:27.005Z,1.58
2023-03-28T16:53:54.043Z,1.98
2023-03-28T16:56:21.566Z,1.88
2023-03-28T16:58:48.561Z,1.40
2023-03-28T17:01:19.183Z,1.30
2023-03-28T17:03:46.852Z,1.85
2023-03-28T17:06:14.492Z,1.55
2023-03-28T17:08:41.618Z,1.73
2023-03-28T17:11:09.733Z,1.42
2023-03-28T17:13:37.395Z,1.42
2023-03-28T17:16:04.576Z,1.60
2023-03-28T17:18:31.766Z,0.98
2023-03-28T17:21:03.383Z,1.80
2023-03-28T17:23:31.572Z,1.90
2023-03-28T17:25:58.810Z,1.60
2023-03-28T17:28:26.379Z,1.70
2023-03-28T17:30:53.725Z,1.60
2023-03-28T17:33:20.891Z,1.73
2023-03-28T17:35:48.033Z,1.65
2023-03-28T17:38:15.203Z,1.67
2023-03-28T17:40:48.773Z,1.45
2023-03-28T17:43:16.041Z,1.40
2023-03-28T17:45:43.189Z,1.52
2023-03-28T17:48:12.427Z,1.85
2023-03-28T17:50:39.637Z,2.03
2023-03-28T17:53:06.900Z,1.25
2023-03-28T17:55:34.591Z,1.67
2023-03-28T17:58:02.108Z,1.98
2023-03-28T18:00:31.434Z,1.75
2023-03-28T18:02:58.745Z,2.70
2023-03-28T18:05:28.129Z,1.63
2023-03-28T18:07:56.235Z,1.48
2023-03-28T18:10:24.003Z,1.73
2023-03-28T18:12:51.685Z,1.70
2023-03-28T18:15:18.804Z,2.03
2023-03-28T18:17:46.051Z,2.15
2023-03-28T18:20:13.260Z,2.00
2023-03-28T18:22:42.268Z,1.77
2023-03-28T18:25:09.595Z,1.80
2023-03-28T18:27:36.848Z,1.88
2023-03-28T18:30:08.024Z,1.42
2023-03-28T18:32:36.021Z,1.70
2023-03-28T18:35:07.112Z,1.73
2023-03-28T18:37:34.782Z,1.50
2023-03-28T18:40:02.375Z,1.63
2023-03-28T18:42:31.250Z,1.60
2023-03-28T18:44:58.339Z,2.20
2023-03-28T18:47:25.485Z,1.33
2023-03-28T18:49:52.611Z,1.98
2023-03-28T18:52:20.028Z,1.98
2023-03-28T18:54:48.009Z,1.88
2023-03-28T18:57:15.970Z,1.60
2023-03-28T18:59:43.071Z,1.75
2023-03-28T19:02:13.883Z,1.98
2023-03-28T19:04:41.006Z,1.80
2023-03-28T19:07:08.559Z,2.25
2023-03-28T19:09:35.786Z,1.77
2023-03-28T19:12:02.940Z,1.92
2023-03-28T19:14:30.513Z,1.48
2023-03-28T19:16:57.647Z,2.22
2023-03-28T19:19:24.938Z,1.70
2023-03-28T19:21:52.541Z,1.75
2023-03-28T19:24:21.221Z,1.60
2023-03-28T19:26:49.518Z,1.92
2023-03-28T19:29:16.845Z,1.92
2023-03-28T19:31:44.053Z,2.50
2023-03-28T19:34:16.573Z,2.15
2023-03-28T19:36:43.787Z,2.10
2023-03-28T19:39:10.994Z,1.92
2023-03-28T19:41:38.058Z,2.33
2023-03-28T19:44:05.508Z,2.20
2023-03-28T19:46:36.199Z,1.85
2023-03-28T19:49:06.538Z,1.95
2023-03-28T19:51:34.168Z,2.05
2023-03-28T19:54:01.449Z,1.98
2023-03-28T19:56:28.607Z,2.25
2023-03-28T19:58:55.708Z,2.20
2023-03-28T20:01:22.979Z,1.70
2023-03-28T20:03:53.013Z,2.33
2023-03-28T20:06:21.181Z,2.15
2023-03-28T20:08:48.454Z,2.00
2023-03-28T20:11:16.746Z,1.98
2023-03-28T20:13:43.868Z,1.95
2023-03-28T20:16:11.984Z,1.63
2023-03-28T20:18:39.382Z,2.25
2023-03-28T20:21:07.994Z,3.05
2023-03-28T20:23:35.208Z,1.60
2023-03-28T20:26:12.142Z,1.73
2023-03-28T20:28:39.989Z,2.10
2023-03-28T20:31:07.103Z,1.63
2023-03-28T20:33:36.046Z,2.15
2023-03-28T20:36:03.969Z,1.83
2023-03-28T20:38:31.060Z,2.15
2023-03-28T20:40:58.531Z,1.45
2023-03-28T20:43:29.142Z,1.95
2023-03-28T20:46:04.720Z,1.90
2023-03-28T20:48:35.105Z,2.03
2023-03-28T20:51:03.190Z,1.88
2023-03-28T20:53:31.445Z,1.58
2023-03-28T20:56:03.354Z,1.70
2023-03-28T20:58:31.692Z,2.10
2023-03-28T21:01:00.393Z,2.00
2023-03-28T21:03:39.291Z,1.63
2023-03-28T21:06:07.644Z,2.60
2023-03-28T21:08:36.284Z,2.17
2023-03-28T21:11:03.893Z,2.88
2023-03-28T21:13:31.235Z,1.67
2023-03-28T21:15:58.397Z,1.35
2023-03-28T21:18:27.485Z,1.40
2023-03-28T21:20:54.519Z,2.03
2023-03-28T21:23:22.556Z,1.55
2023-03-28T21:25:53.300Z,1.65
2023-03-28T21:28:20.377Z,1.45
2023-03-28T21:30:56.826Z,1.40
2023-03-28T21:33:24.582Z,1.50
2023-03-28T21:35:52.455Z,1.25
2023-03-28T21:38:19.743Z,1.42
2023-03-28T21:40:47.866Z,1.67
2023-03-28T21:43:15.854Z,1.05
2023-03-28T21:45:47.764Z,0.88
2023-03-28T21:50:42.277Z,1.10
2023-03-28T21:53:10.302Z,1.10
2023-03-28T21:55:37.601Z,1.05
2023-03-28T21:58:04.989Z,1.10
2023-03-28T22:00:32.121Z,1.15
2023-03-28T22:02:59.314Z,1.00
2023-03-28T22:05:29.679Z,1.10
2023-03-28T22:07:57.452Z,1.27
2023-03-28T22:10:26.692Z,1.13
2023-03-28T22:12:54.725Z,1.10
2023-03-28T22:15:23.986Z,0.88
2023-03-28T22:17:51.426Z,0.88
2023-03-28T22:20:18.633Z,1.13
2023-03-28T22:22:48.501Z,1.13
2023-03-28T22:25:16.448Z,1.40
2023-03-28T22:27:44.196Z,1.20
2023-03-28T22:30:11.981Z,0.98
2023-03-28T22:32:39.292Z,1.00
2023-03-28T22:35:06.915Z,1.05
2023-03-28T22:37:34.211Z,1.05
2023-03-28T22:40:01.287Z,1.17
2023-03-28T22:42:28.703Z,1.48
2023-03-28T22:44:55.767Z,1.30
2023-03-28T22:47:30.240Z,1.23
2023-03-28T22:49:59.669Z,1.50
2023-03-28T22:52:26.678Z,0.80
2023-03-28T22:54:53.805Z,1.00
2023-03-28T22:57:20.994Z,1.20
2023-03-28T22:59:49.892Z,1.08
2023-03-28T23:02:16.944Z,1.20
2023-03-28T23:04:46.582Z,1.08
2023-03-28T23:07:14.583Z,1.05
2023-03-28T23:09:41.678Z,1.65
2023-03-28T23:12:08.875Z,1.10
2023-03-28T23:14:36.044Z,1.05
2023-03-28T23:17:04.318Z,1.33
2023-03-28T23:19:31.956Z,1.00
2023-03-28T23:21:59.361Z,1.23
2023-03-28T23:24:27.685Z,1.10
2023-03-28T23:26:57.771Z,1.65
2023-03-28T23:29:25.114Z,1.20
2023-03-28T23:31:52.217Z,1.13
2023-03-28T23:34:19.352Z,1.40
2023-03-28T23:36:47.007Z,1.25
2023-03-28T23:39:14.484Z,0.95
2023-03-28T23:41:41.820Z,1.33
2023-03-28T23:44:08.872Z,1.20
2023-03-28T23:46:36.804Z,1.08
2023-03-28T23:49:03.939Z,1.13
2023-03-28T23:51:31.413Z,1.00
2023-03-28T23:53:58.572Z,1.00
2023-03-28T23:56:26.149Z,1.30
2023-03-28T23:58:53.210Z,1.10
